sensor_id;sensor_type;location;lat;lon;timestamp;pressure;altitude;pressure_sealevel;temperature
70533;BMP180;58088;51.186;17.130;2023-08-06T00:00:12;99215.80;;;18.00
70533;BMP180;58088;51.186;17.130;2023-08-06T00:02:41;99224.20;;;18.00
70533;BMP180;58088;51.186;17.130;2023-08-06T00:05:07;99226.00;;;18.00
70533;BMP180;58088;51.186;17.130;2023-08-06T00:07:33;99221.80;;;18.00
70533;BMP180;58088;51.186;17.130;2023-08-06T00:09:59;99222.60;;;18.00
70533;BMP180;58088;51.186;17.130;2023-08-06T00:12:26;99206.80;;;18.00
70533;BMP180;58088;51.186;17.130;2023-08-06T00:14:53;99197.40;;;18.00
70533;BMP180;58088;51.186;17.130;2023-08-06T00:17:19;99185.00;;;18.00
70533;BMP180;58088;51.186;17.130;2023-08-06T00:19:46;99186.80;;;18.00
70533;BMP180;58088;51.186;17.130;2023-08-06T00:22:12;99183.00;;;18.00
70533;BMP180;58088;51.186;17.130;2023-08-06T00:24:38;99179.20;;;18.00
70533;BMP180;58088;51.186;17.130;2023-08-06T00:27:04;99182.80;;;18.00
70533;BMP180;58088;51.186;17.130;2023-08-06T00:29:31;99179.60;;;18.00
70533;BMP180;58088;51.186;17.130;2023-08-06T00:31:57;99169.60;;;18.00
70533;BMP180;58088;51.186;17.130;2023-08-06T00:34:25;99166.60;;;18.00
70533;BMP180;58088;51.186;17.130;2023-08-06T00:36:51;99152.40;;;18.00
70533;BMP180;58088;51.186;17.130;2023-08-06T00:39:17;99151.60;;;18.00
70533;BMP180;58088;51.186;17.130;2023-08-06T00:41:43;99151.20;;;18.00
70533;BMP180;58088;51.186;17.130;2023-08-06T00:44:09;99148.20;;;18.00
70533;BMP180;58088;51.186;17.130;2023-08-06T00:46:36;99156.40;;;18.00
70533;BMP180;58088;51.186;17.130;2023-08-06T00:49:05;99145.40;;;18.00
70533;BMP180;58088;51.186;17.130;2023-08-06T00:51:32;99144.80;;;18.00
70533;BMP180;58088;51.186;17.130;2023-08-06T00:53:59;99136.40;;;18.00
70533;BMP180;58088;51.186;17.130;2023-08-06T00:56:27;99123.40;;;18.00
70533;BMP180;58088;51.186;17.130;2023-08-06T00:58:55;99111.80;;;18.04
70533;BMP180;58088;51.186;17.130;2023-08-06T01:01:22;99096.20;;;18.00
70533;BMP180;58088;51.186;17.130;2023-08-06T01:03:50;99087.20;;;18.00
70533;BMP180;58088;51.186;17.130;2023-08-06T01:06:29;99085.40;;;18.00
70533;BMP180;58088;51.186;17.130;2023-08-06T01:09:18;99077.60;;;18.00
70533;BMP180;58088;51.186;17.130;2023-08-06T01:12:06;99069.40;;;18.00
70533;BMP180;58088;51.186;17.130;2023-08-06T01:15:19;99067.60;;;18.00
70533;BMP180;58088;51.186;17.130;2023-08-06T01:17:46;99057.40;;;17.98
70533;BMP180;58088;51.186;17.130;2023-08-06T01:20:13;99048.40;;;17.92
70533;BMP180;58088;51.186;17.130;2023-08-06T01:22:40;99040.80;;;17.96
70533;BMP180;58088;51.186;17.130;2023-08-06T01:25:08;99034.20;;;17.98
70533;BMP180;58088;51.186;17.130;2023-08-06T01:27:49;99029.00;;;17.92
70533;BMP180;58088;51.186;17.130;2023-08-06T01:30:29;99020.20;;;17.94
70533;BMP180;58088;51.186;17.130;2023-08-06T01:33:04;99011.60;;;17.90
70533;BMP180;58088;51.186;17.130;2023-08-06T01:35:31;99006.60;;;17.90
70533;BMP180;58088;51.186;17.130;2023-08-06T01:38:00;98994.80;;;17.90
70533;BMP180;58088;51.186;17.130;2023-08-06T01:40:27;99002.00;;;17.90
70533;BMP180;58088;51.186;17.130;2023-08-06T01:42:55;99000.40;;;17.90
70533;BMP180;58088;51.186;17.130;2023-08-06T01:45:21;99002.00;;;17.90
70533;BMP180;58088;51.186;17.130;2023-08-06T01:47:48;98987.60;;;17.90
70533;BMP180;58088;51.186;17.130;2023-08-06T01:50:15;98955.80;;;17.90
70533;BMP180;58088;51.186;17.130;2023-08-06T01:52:41;98956.40;;;17.90
70533;BMP180;58088;51.186;17.130;2023-08-06T01:55:07;98978.80;;;17.90
70533;BMP180;58088;51.186;17.130;2023-08-06T01:57:34;98964.20;;;17.90
70533;BMP180;58088;51.186;17.130;2023-08-06T02:00:00;98958.00;;;17.90
70533;BMP180;58088;51.186;17.130;2023-08-06T02:02:26;98954.20;;;17.90
70533;BMP180;58088;51.186;17.130;2023-08-06T02:04:53;98948.80;;;17.90
70533;BMP180;58088;51.186;17.130;2023-08-06T02:07:19;98958.00;;;17.90
70533;BMP180;58088;51.186;17.130;2023-08-06T02:09:45;98957.80;;;17.92
70533;BMP180;58088;51.186;17.130;2023-08-06T02:12:11;98958.80;;;17.90
70533;BMP180;58088;51.186;17.130;2023-08-06T02:14:37;98962.20;;;17.90
70533;BMP180;58088;51.186;17.130;2023-08-06T02:17:03;98944.20;;;17.90
70533;BMP180;58088;51.186;17.130;2023-08-06T02:19:30;98936.00;;;17.90
70533;BMP180;58088;51.186;17.130;2023-08-06T02:21:56;98938.40;;;17.90
70533;BMP180;58088;51.186;17.130;2023-08-06T02:24:22;98933.00;;;17.90
70533;BMP180;58088;51.186;17.130;2023-08-06T02:26:48;98939.60;;;17.90
70533;BMP180;58088;51.186;17.130;2023-08-06T02:29:17;98931.40;;;17.86
70533;BMP180;58088;51.186;17.130;2023-08-06T02:31:43;98920.80;;;17.80
70533;BMP180;58088;51.186;17.130;2023-08-06T02:34:09;98905.20;;;17.80
70533;BMP180;58088;51.186;17.130;2023-08-06T02:36:35;98897.20;;;17.80
70533;BMP180;58088;51.186;17.130;2023-08-06T02:39:02;98886.40;;;17.80
70533;BMP180;58088;51.186;17.130;2023-08-06T02:41:29;98872.20;;;17.80
70533;BMP180;58088;51.186;17.130;2023-08-06T02:43:56;98857.00;;;17.78
70533;BMP180;58088;51.186;17.130;2023-08-06T02:46:23;98852.80;;;17.74
70533;BMP180;58088;51.186;17.130;2023-08-06T02:48:49;98854.80;;;17.72
70533;BMP180;58088;51.186;17.130;2023-08-06T02:51:16;98851.00;;;17.70
70533;BMP180;58088;51.186;17.130;2023-08-06T02:53:42;98846.00;;;17.80
70533;BMP180;58088;51.186;17.130;2023-08-06T02:56:09;98845.20;;;17.70
70533;BMP180;58088;51.186;17.130;2023-08-06T02:58:45;98843.80;;;17.70
70533;BMP180;58088;51.186;17.130;2023-08-06T03:01:24;98851.60;;;17.70
70533;BMP180;58088;51.186;17.130;2023-08-06T03:03:56;98846.80;;;17.70
70533;BMP180;58088;51.186;17.130;2023-08-06T03:06:27;98847.00;;;17.70
70533;BMP180;58088;51.186;17.130;2023-08-06T03:08:54;98839.60;;;17.70
70533;BMP180;58088;51.186;17.130;2023-08-06T03:11:23;98844.20;;;17.70
70533;BMP180;58088;51.186;17.130;2023-08-06T03:13:51;98842.40;;;17.74
70533;BMP180;58088;51.186;17.130;2023-08-06T03:16:18;98853.60;;;17.80
70533;BMP180;58088;51.186;17.130;2023-08-06T03:18:45;98843.60;;;17.70
70533;BMP180;58088;51.186;17.130;2023-08-06T03:21:11;98854.00;;;17.72
70533;BMP180;58088;51.186;17.130;2023-08-06T03:23:38;98858.60;;;17.72
70533;BMP180;58088;51.186;17.130;2023-08-06T03:26:05;98868.00;;;17.70
70533;BMP180;58088;51.186;17.130;2023-08-06T03:28:32;98872.00;;;17.70
70533;BMP180;58088;51.186;17.130;2023-08-06T03:33:28;98865.20;;;17.70
70533;BMP180;58088;51.186;17.130;2023-08-06T03:35:56;98859.40;;;17.68
70533;BMP180;58088;51.186;17.130;2023-08-06T03:38:23;98849.60;;;17.60
70533;BMP180;58088;51.186;17.130;2023-08-06T03:40:49;98843.80;;;17.60
70533;BMP180;58088;51.186;17.130;2023-08-06T03:43:16;98840.20;;;17.60
70533;BMP180;58088;51.186;17.130;2023-08-06T03:45:43;98836.60;;;17.60
70533;BMP180;58088;51.186;17.130;2023-08-06T03:48:11;98835.60;;;17.58
70533;BMP180;58088;51.186;17.130;2023-08-06T03:50:37;98832.20;;;17.58
70533;BMP180;58088;51.186;17.130;2023-08-06T03:53:05;98821.20;;;17.58
70533;BMP180;58088;51.186;17.130;2023-08-06T03:55:31;98820.20;;;17.58
70533;BMP180;58088;51.186;17.130;2023-08-06T03:57:58;98817.80;;;17.50
70533;BMP180;58088;51.186;17.130;2023-08-06T04:00:24;98811.40;;;17.50
70533;BMP180;58088;51.186;17.130;2023-08-06T04:02:52;98810.20;;;17.50
70533;BMP180;58088;51.186;17.130;2023-08-06T04:05:19;98802.40;;;17.50
70533;BMP180;58088;51.186;17.130;2023-08-06T04:07:45;98807.80;;;17.50
70533;BMP180;58088;51.186;17.130;2023-08-06T04:10:11;98804.20;;;17.50
70533;BMP180;58088;51.186;17.130;2023-08-06T04:12:37;98815.80;;;17.50
70533;BMP180;58088;51.186;17.130;2023-08-06T04:15:06;98819.40;;;17.50
70533;BMP180;58088;51.186;17.130;2023-08-06T04:17:32;98825.20;;;17.50
70533;BMP180;58088;51.186;17.130;2023-08-06T04:19:59;98835.20;;;17.50
70533;BMP180;58088;51.186;17.130;2023-08-06T04:22:25;98832.60;;;17.50
70533;BMP180;58088;51.186;17.130;2023-08-06T04:24:52;98832.80;;;17.40
70533;BMP180;58088;51.186;17.130;2023-08-06T04:27:19;98822.60;;;17.40
70533;BMP180;58088;51.186;17.130;2023-08-06T04:29:46;98817.60;;;17.32
70533;BMP180;58088;51.186;17.130;2023-08-06T04:32:13;98826.00;;;17.30
70533;BMP180;58088;51.186;17.130;2023-08-06T04:34:44;98827.60;;;17.30
70533;BMP180;58088;51.186;17.130;2023-08-06T04:37:10;98824.40;;;17.26
70533;BMP180;58088;51.186;17.130;2023-08-06T04:39:37;98819.80;;;17.26
70533;BMP180;58088;51.186;17.130;2023-08-06T04:42:05;98818.00;;;17.30
70533;BMP180;58088;51.186;17.130;2023-08-06T04:44:31;98805.80;;;17.30
70533;BMP180;58088;51.186;17.130;2023-08-06T04:46:58;98813.20;;;17.30
70533;BMP180;58088;51.186;17.130;2023-08-06T04:49:25;98816.20;;;17.30
70533;BMP180;58088;51.186;17.130;2023-08-06T04:51:51;98811.20;;;17.30
70533;BMP180;58088;51.186;17.130;2023-08-06T04:54:18;98806.60;;;17.30
70533;BMP180;58088;51.186;17.130;2023-08-06T04:56:44;98792.40;;;17.32
70533;BMP180;58088;51.186;17.130;2023-08-06T04:59:11;98777.00;;;17.36
70533;BMP180;58088;51.186;17.130;2023-08-06T05:01:37;98777.20;;;17.32
70533;BMP180;58088;51.186;17.130;2023-08-06T05:04:04;98779.00;;;17.30
70533;BMP180;58088;51.186;17.130;2023-08-06T05:06:30;98790.80;;;17.32
70533;BMP180;58088;51.186;17.130;2023-08-06T05:08:59;98797.60;;;17.40
70533;BMP180;58088;51.186;17.130;2023-08-06T05:11:26;98799.00;;;17.30
70533;BMP180;58088;51.186;17.130;2023-08-06T05:13:52;98792.60;;;17.30
70533;BMP180;58088;51.186;17.130;2023-08-06T05:16:19;98793.60;;;17.30
70533;BMP180;58088;51.186;17.130;2023-08-06T05:18:46;98790.60;;;17.30
70533;BMP180;58088;51.186;17.130;2023-08-06T05:21:15;98778.20;;;17.30
70533;BMP180;58088;51.186;17.130;2023-08-06T05:23:43;98771.60;;;17.30
70533;BMP180;58088;51.186;17.130;2023-08-06T05:26:09;98767.00;;;17.32
70533;BMP180;58088;51.186;17.130;2023-08-06T05:28:35;98763.80;;;17.30
70533;BMP180;58088;51.186;17.130;2023-08-06T05:31:05;98767.40;;;17.30
70533;BMP180;58088;51.186;17.130;2023-08-06T05:33:31;98765.40;;;17.30
70533;BMP180;58088;51.186;17.130;2023-08-06T05:35:57;98753.40;;;17.30
70533;BMP180;58088;51.186;17.130;2023-08-06T05:38:24;98755.20;;;17.30
70533;BMP180;58088;51.186;17.130;2023-08-06T05:40:51;98746.80;;;17.30
70533;BMP180;58088;51.186;17.130;2023-08-06T05:43:17;98757.40;;;17.30
70533;BMP180;58088;51.186;17.130;2023-08-06T05:45:46;98760.00;;;17.30
70533;BMP180;58088;51.186;17.130;2023-08-06T05:48:15;98760.00;;;17.30
70533;BMP180;58088;51.186;17.130;2023-08-06T05:50:41;98760.40;;;17.30
70533;BMP180;58088;51.186;17.130;2023-08-06T05:53:08;98754.00;;;17.30
70533;BMP180;58088;51.186;17.130;2023-08-06T05:55:34;98749.80;;;17.30
70533;BMP180;58088;51.186;17.130;2023-08-06T05:58:01;98755.80;;;17.26
70533;BMP180;58088;51.186;17.130;2023-08-06T06:00:27;98762.80;;;17.22
70533;BMP180;58088;51.186;17.130;2023-08-06T06:02:54;98745.40;;;17.26
70533;BMP180;58088;51.186;17.130;2023-08-06T06:05:20;98752.40;;;17.30
70533;BMP180;58088;51.186;17.130;2023-08-06T06:07:46;98755.40;;;17.22
70533;BMP180;58088;51.186;17.130;2023-08-06T06:10:12;98756.60;;;17.28
70533;BMP180;58088;51.186;17.130;2023-08-06T06:12:40;98750.60;;;17.30
70533;BMP180;58088;51.186;17.130;2023-08-06T06:15:09;98741.20;;;17.22
70533;BMP180;58088;51.186;17.130;2023-08-06T06:17:35;98707.20;;;17.20
70533;BMP180;58088;51.186;17.130;2023-08-06T06:20:01;98708.00;;;17.30
70533;BMP180;58088;51.186;17.130;2023-08-06T06:22:30;98726.40;;;17.30
70533;BMP180;58088;51.186;17.130;2023-08-06T06:24:56;98751.00;;;17.24
70533;BMP180;58088;51.186;17.130;2023-08-06T06:27:23;98765.80;;;17.30
70533;BMP180;58088;51.186;17.130;2023-08-06T06:29:49;98778.80;;;17.30
70533;BMP180;58088;51.186;17.130;2023-08-06T06:32:15;98793.00;;;17.30
70533;BMP180;58088;51.186;17.130;2023-08-06T06:34:41;98779.40;;;17.30
70533;BMP180;58088;51.186;17.130;2023-08-06T06:37:08;98745.80;;;17.30
70533;BMP180;58088;51.186;17.130;2023-08-06T06:39:34;98741.00;;;17.30
70533;BMP180;58088;51.186;17.130;2023-08-06T06:42:00;98763.60;;;17.30
70533;BMP180;58088;51.186;17.130;2023-08-06T06:44:31;98752.40;;;17.30
70533;BMP180;58088;51.186;17.130;2023-08-06T06:46:57;98718.60;;;17.30
70533;BMP180;58088;51.186;17.130;2023-08-06T06:49:36;98718.00;;;17.20
70533;BMP180;58088;51.186;17.130;2023-08-06T06:52:03;98740.60;;;17.20
70533;BMP180;58088;51.186;17.130;2023-08-06T06:54:30;98740.80;;;17.20
70533;BMP180;58088;51.186;17.130;2023-08-06T06:56:57;98747.80;;;17.20
70533;BMP180;58088;51.186;17.130;2023-08-06T06:59:23;98751.00;;;17.20
70533;BMP180;58088;51.186;17.130;2023-08-06T07:01:50;98750.20;;;17.20
70533;BMP180;58088;51.186;17.130;2023-08-06T07:04:16;98750.80;;;17.30
70533;BMP180;58088;51.186;17.130;2023-08-06T07:06:42;98751.00;;;17.30
70533;BMP180;58088;51.186;17.130;2023-08-06T07:09:09;98745.00;;;17.30
70533;BMP180;58088;51.186;17.130;2023-08-06T07:11:36;98736.00;;;17.30
70533;BMP180;58088;51.186;17.130;2023-08-06T07:14:02;98726.80;;;17.30
70533;BMP180;58088;51.186;17.130;2023-08-06T07:16:28;98728.80;;;17.30
70533;BMP180;58088;51.186;17.130;2023-08-06T07:18:55;98730.60;;;17.30
70533;BMP180;58088;51.186;17.130;2023-08-06T07:21:22;98732.80;;;17.40
70533;BMP180;58088;51.186;17.130;2023-08-06T07:23:48;98726.40;;;17.40
70533;BMP180;58088;51.186;17.130;2023-08-06T07:26:17;98723.00;;;17.40
70533;BMP180;58088;51.186;17.130;2023-08-06T07:28:44;98723.80;;;17.40
70533;BMP180;58088;51.186;17.130;2023-08-06T07:31:10;98725.80;;;17.40
70533;BMP180;58088;51.186;17.130;2023-08-06T07:33:37;98725.20;;;17.40
70533;BMP180;58088;51.186;17.130;2023-08-06T07:36:14;98720.40;;;17.40
70533;BMP180;58088;51.186;17.130;2023-08-06T07:38:41;98717.80;;;17.48
70533;BMP180;58088;51.186;17.130;2023-08-06T07:41:08;98713.00;;;17.50
70533;BMP180;58088;51.186;17.130;2023-08-06T07:43:34;98720.60;;;17.50
70533;BMP180;58088;51.186;17.130;2023-08-06T07:46:02;98719.80;;;17.50
70533;BMP180;58088;51.186;17.130;2023-08-06T07:48:28;98708.40;;;17.58
70533;BMP180;58088;51.186;17.130;2023-08-06T07:50:55;98700.00;;;17.60
70533;BMP180;58088;51.186;17.130;2023-08-06T07:53:23;98696.60;;;17.60
70533;BMP180;58088;51.186;17.130;2023-08-06T07:55:54;98694.20;;;17.60
70533;BMP180;58088;51.186;17.130;2023-08-06T07:58:21;98689.40;;;17.60
70533;BMP180;58088;51.186;17.130;2023-08-06T08:00:48;98690.00;;;17.60
70533;BMP180;58088;51.186;17.130;2023-08-06T08:03:16;98692.60;;;17.60
70533;BMP180;58088;51.186;17.130;2023-08-06T08:05:43;98695.60;;;17.60
70533;BMP180;58088;51.186;17.130;2023-08-06T08:08:10;98699.00;;;17.62
70533;BMP180;58088;51.186;17.130;2023-08-06T08:10:36;98687.40;;;17.64
70533;BMP180;58088;51.186;17.130;2023-08-06T08:13:05;98676.00;;;17.60
70533;BMP180;58088;51.186;17.130;2023-08-06T08:15:32;98665.00;;;17.70
70533;BMP180;58088;51.186;17.130;2023-08-06T08:17:59;98660.40;;;17.66
70533;BMP180;58088;51.186;17.130;2023-08-06T08:20:27;98656.40;;;17.68
70533;BMP180;58088;51.186;17.130;2023-08-06T08:23:04;98645.40;;;17.68
70533;BMP180;58088;51.186;17.130;2023-08-06T08:25:31;98628.00;;;17.68
70533;BMP180;58088;51.186;17.130;2023-08-06T08:27:57;98612.80;;;17.66
70533;BMP180;58088;51.186;17.130;2023-08-06T08:30:23;98609.00;;;17.70
70533;BMP180;58088;51.186;17.130;2023-08-06T08:32:51;98603.20;;;17.70
70533;BMP180;58088;51.186;17.130;2023-08-06T08:35:18;98604.00;;;17.72
70533;BMP180;58088;51.186;17.130;2023-08-06T08:37:44;98610.60;;;17.80
70533;BMP180;58088;51.186;17.130;2023-08-06T08:40:11;98616.20;;;17.80
70533;BMP180;58088;51.186;17.130;2023-08-06T08:42:38;98619.40;;;17.84
70533;BMP180;58088;51.186;17.130;2023-08-06T08:45:13;98615.60;;;17.90
70533;BMP180;58088;51.186;17.130;2023-08-06T08:47:43;98617.00;;;17.90
70533;BMP180;58088;51.186;17.130;2023-08-06T08:50:11;98612.20;;;18.00
70533;BMP180;58088;51.186;17.130;2023-08-06T08:52:40;98608.80;;;18.00
70533;BMP180;58088;51.186;17.130;2023-08-06T08:55:08;98606.20;;;17.90
70533;BMP180;58088;51.186;17.130;2023-08-06T08:57:34;98603.40;;;17.90
70533;BMP180;58088;51.186;17.130;2023-08-06T09:00:00;98605.60;;;17.90
70533;BMP180;58088;51.186;17.130;2023-08-06T09:02:29;98595.20;;;17.90
70533;BMP180;58088;51.186;17.130;2023-08-06T09:05:01;98600.80;;;17.92
70533;BMP180;58088;51.186;17.130;2023-08-06T09:07:41;98595.40;;;17.92
70533;BMP180;58088;51.186;17.130;2023-08-06T09:10:11;98594.60;;;17.90
70533;BMP180;58088;51.186;17.130;2023-08-06T09:12:40;98592.80;;;17.98
70533;BMP180;58088;51.186;17.130;2023-08-06T09:15:13;98580.60;;;17.90
70533;BMP180;58088;51.186;17.130;2023-08-06T09:17:39;98590.00;;;17.90
70533;BMP180;58088;51.186;17.130;2023-08-06T09:20:15;98588.80;;;17.90
70533;BMP180;58088;51.186;17.130;2023-08-06T09:22:42;98593.60;;;17.90
70533;BMP180;58088;51.186;17.130;2023-08-06T09:25:08;98603.20;;;17.90
70533;BMP180;58088;51.186;17.130;2023-08-06T09:27:39;98605.80;;;17.90
70533;BMP180;58088;51.186;17.130;2023-08-06T09:30:07;98611.00;;;17.98
70533;BMP180;58088;51.186;17.130;2023-08-06T09:32:48;98617.20;;;18.00
70533;BMP180;58088;51.186;17.130;2023-08-06T09:35:18;98621.60;;;18.00
70533;BMP180;58088;51.186;17.130;2023-08-06T09:37:45;98613.40;;;17.98
70533;BMP180;58088;51.186;17.130;2023-08-06T09:40:30;98610.80;;;17.90
70533;BMP180;58088;51.186;17.130;2023-08-06T09:42:58;98603.60;;;17.90
70533;BMP180;58088;51.186;17.130;2023-08-06T09:45:37;98606.60;;;17.90
70533;BMP180;58088;51.186;17.130;2023-08-06T09:48:06;98610.40;;;17.90
70533;BMP180;58088;51.186;17.130;2023-08-06T09:50:37;98608.20;;;17.90
70533;BMP180;58088;51.186;17.130;2023-08-06T09:53:07;98616.20;;;17.94
70533;BMP180;58088;51.186;17.130;2023-08-06T09:55:34;98623.20;;;18.00
70533;BMP180;58088;51.186;17.130;2023-08-06T09:58:02;98626.80;;;18.00
70533;BMP180;58088;51.186;17.130;2023-08-06T10:00:30;98626.40;;;18.00
70533;BMP180;58088;51.186;17.130;2023-08-06T10:03:00;98633.80;;;18.00
70533;BMP180;58088;51.186;17.130;2023-08-06T10:05:27;98632.20;;;18.00
70533;BMP180;58088;51.186;17.130;2023-08-06T10:07:55;98631.40;;;18.00
70533;BMP180;58088;51.186;17.130;2023-08-06T10:10:23;98624.60;;;18.00
70533;BMP180;58088;51.186;17.130;2023-08-06T10:12:54;98622.00;;;17.90
70533;BMP180;58088;51.186;17.130;2023-08-06T10:15:26;98626.20;;;18.00
70533;BMP180;58088;51.186;17.130;2023-08-06T10:17:57;98626.20;;;18.00
70533;BMP180;58088;51.186;17.130;2023-08-06T10:20:24;98617.80;;;17.94
70533;BMP180;58088;51.186;17.130;2023-08-06T10:23:03;98613.80;;;17.90
70533;BMP180;58088;51.186;17.130;2023-08-06T10:25:40;98597.40;;;17.90
70533;BMP180;58088;51.186;17.130;2023-08-06T10:28:11;98578.80;;;17.90
70533;BMP180;58088;51.186;17.130;2023-08-06T10:30:44;98570.00;;;17.90
70533;BMP180;58088;51.186;17.130;2023-08-06T10:33:11;98555.40;;;17.94
70533;BMP180;58088;51.186;17.130;2023-08-06T10:38:28;98548.20;;;18.00
70533;BMP180;58088;51.186;17.130;2023-08-06T10:43:35;98552.80;;;18.00
70533;BMP180;58088;51.186;17.130;2023-08-06T10:46:11;98550.40;;;18.00
70533;BMP180;58088;51.186;17.130;2023-08-06T10:48:41;98549.60;;;18.10
70533;BMP180;58088;51.186;17.130;2023-08-06T10:51:10;98551.80;;;18.10
70533;BMP180;58088;51.186;17.130;2023-08-06T10:53:41;98547.20;;;18.10
70533;BMP180;58088;51.186;17.130;2023-08-06T10:56:19;98543.60;;;18.10
70533;BMP180;58088;51.186;17.130;2023-08-06T10:58:50;98537.00;;;18.10
70533;BMP180;58088;51.186;17.130;2023-08-06T11:01:16;98529.60;;;18.10
70533;BMP180;58088;51.186;17.130;2023-08-06T11:03:45;98530.00;;;18.12
70533;BMP180;58088;51.186;17.130;2023-08-06T11:06:18;98528.20;;;18.20
70533;BMP180;58088;51.186;17.130;2023-08-06T11:08:53;98520.40;;;18.20
70533;BMP180;58088;51.186;17.130;2023-08-06T11:11:22;98534.40;;;18.30
70533;BMP180;58088;51.186;17.130;2023-08-06T11:13:51;98527.00;;;18.30
70533;BMP180;58088;51.186;17.130;2023-08-06T11:16:21;98528.00;;;18.30
70533;BMP180;58088;51.186;17.130;2023-08-06T11:18:49;98520.60;;;18.30
70533;BMP180;58088;51.186;17.130;2023-08-06T11:21:19;98516.80;;;18.32
70533;BMP180;58088;51.186;17.130;2023-08-06T11:23:46;98515.80;;;18.38
70533;BMP180;58088;51.186;17.130;2023-08-06T11:26:12;98514.40;;;18.40
70533;BMP180;58088;51.186;17.130;2023-08-06T11:28:38;98513.60;;;18.40
70533;BMP180;58088;51.186;17.130;2023-08-06T11:31:06;98518.80;;;18.50
70533;BMP180;58088;51.186;17.130;2023-08-06T11:33:32;98516.40;;;18.50
70533;BMP180;58088;51.186;17.130;2023-08-06T11:36:01;98516.00;;;18.50
70533;BMP180;58088;51.186;17.130;2023-08-06T11:38:28;98506.80;;;18.50
70533;BMP180;58088;51.186;17.130;2023-08-06T11:40:55;98503.40;;;18.50
70533;BMP180;58088;51.186;17.130;2023-08-06T11:43:22;98506.80;;;18.50
70533;BMP180;58088;51.186;17.130;2023-08-06T11:45:50;98512.20;;;18.50
70533;BMP180;58088;51.186;17.130;2023-08-06T11:48:16;98510.20;;;18.50
70533;BMP180;58088;51.186;17.130;2023-08-06T11:50:44;98515.20;;;18.50
70533;BMP180;58088;51.186;17.130;2023-08-06T11:53:13;98519.20;;;18.50
70533;BMP180;58088;51.186;17.130;2023-08-06T11:55:41;98516.80;;;18.50
70533;BMP180;58088;51.186;17.130;2023-08-06T11:58:10;98523.80;;;18.50
70533;BMP180;58088;51.186;17.130;2023-08-06T12:00:38;98531.60;;;18.50
70533;BMP180;58088;51.186;17.130;2023-08-06T12:03:05;98528.80;;;18.42
70533;BMP180;58088;51.186;17.130;2023-08-06T12:05:32;98532.00;;;18.40
70533;BMP180;58088;51.186;17.130;2023-08-06T12:08:01;98533.20;;;18.40
70533;BMP180;58088;51.186;17.130;2023-08-06T12:10:30;98540.00;;;18.40
70533;BMP180;58088;51.186;17.130;2023-08-06T12:12:58;98539.40;;;18.40
70533;BMP180;58088;51.186;17.130;2023-08-06T12:15:24;98537.60;;;18.40
70533;BMP180;58088;51.186;17.130;2023-08-06T12:17:51;98543.60;;;18.40
70533;BMP180;58088;51.186;17.130;2023-08-06T12:20:18;98548.20;;;18.40
70533;BMP180;58088;51.186;17.130;2023-08-06T12:22:44;98550.60;;;18.40
70533;BMP180;58088;51.186;17.130;2023-08-06T12:25:12;98555.80;;;18.40
70533;BMP180;58088;51.186;17.130;2023-08-06T12:27:40;98554.60;;;18.40
70533;BMP180;58088;51.186;17.130;2023-08-06T12:30:08;98557.00;;;18.40
70533;BMP180;58088;51.186;17.130;2023-08-06T12:32:36;98561.20;;;18.40
70533;BMP180;58088;51.186;17.130;2023-08-06T12:35:03;98567.40;;;18.40
70533;BMP180;58088;51.186;17.130;2023-08-06T12:37:29;98574.40;;;18.38
70533;BMP180;58088;51.186;17.130;2023-08-06T12:39:56;98576.40;;;18.30
70533;BMP180;58088;51.186;17.130;2023-08-06T12:42:22;98581.20;;;18.30
70533;BMP180;58088;51.186;17.130;2023-08-06T12:44:48;98586.20;;;18.30
70533;BMP180;58088;51.186;17.130;2023-08-06T12:47:16;98580.60;;;18.30
70533;BMP180;58088;51.186;17.130;2023-08-06T12:49:45;98579.00;;;18.30
70533;BMP180;58088;51.186;17.130;2023-08-06T12:52:12;98581.40;;;18.30
70533;BMP180;58088;51.186;17.130;2023-08-06T12:54:41;98588.60;;;18.24
70533;BMP180;58088;51.186;17.130;2023-08-06T12:57:07;98590.00;;;18.30
70533;BMP180;58088;51.186;17.130;2023-08-06T12:59:34;98586.60;;;18.30
70533;BMP180;58088;51.186;17.130;2023-08-06T13:02:03;98588.60;;;18.30
70533;BMP180;58088;51.186;17.130;2023-08-06T13:04:31;98589.20;;;18.34
70533;BMP180;58088;51.186;17.130;2023-08-06T13:06:57;98587.80;;;18.36
70533;BMP180;58088;51.186;17.130;2023-08-06T13:09:24;98597.40;;;18.38
70533;BMP180;58088;51.186;17.130;2023-08-06T13:11:52;98600.60;;;18.40
70533;BMP180;58088;51.186;17.130;2023-08-06T13:14:19;98605.00;;;18.40
70533;BMP180;58088;51.186;17.130;2023-08-06T13:16:48;98609.40;;;18.40
70533;BMP180;58088;51.186;17.130;2023-08-06T13:19:15;98611.40;;;18.40
70533;BMP180;58088;51.186;17.130;2023-08-06T13:24:08;98613.40;;;18.44
70533;BMP180;58088;51.186;17.130;2023-08-06T13:26:35;98609.80;;;18.50
70533;BMP180;58088;51.186;17.130;2023-08-06T13:29:02;98613.00;;;18.50
70533;BMP180;58088;51.186;17.130;2023-08-06T13:31:30;98611.80;;;18.50
70533;BMP180;58088;51.186;17.130;2023-08-06T13:33:57;98617.40;;;18.50
70533;BMP180;58088;51.186;17.130;2023-08-06T13:36:27;98618.60;;;18.40
70533;BMP180;58088;51.186;17.130;2023-08-06T13:38:55;98614.40;;;18.40
70533;BMP180;58088;51.186;17.130;2023-08-06T13:41:23;98623.00;;;18.40
70533;BMP180;58088;51.186;17.130;2023-08-06T13:43:50;98634.20;;;18.40
70533;BMP180;58088;51.186;17.130;2023-08-06T13:46:18;98638.20;;;18.40
70533;BMP180;58088;51.186;17.130;2023-08-06T13:48:48;98635.20;;;18.46
70533;BMP180;58088;51.186;17.130;2023-08-06T13:51:18;98637.20;;;18.42
70533;BMP180;58088;51.186;17.130;2023-08-06T13:53:45;98643.40;;;18.40
70533;BMP180;58088;51.186;17.130;2023-08-06T13:56:12;98649.20;;;18.40
70533;BMP180;58088;51.186;17.130;2023-08-06T13:58:41;98651.40;;;18.40
70533;BMP180;58088;51.186;17.130;2023-08-06T14:01:11;98647.00;;;18.40
70533;BMP180;58088;51.186;17.130;2023-08-06T14:03:37;98649.80;;;18.40
70533;BMP180;58088;51.186;17.130;2023-08-06T14:06:04;98653.20;;;18.40
70533;BMP180;58088;51.186;17.130;2023-08-06T14:08:31;98652.40;;;18.40
70533;BMP180;58088;51.186;17.130;2023-08-06T14:10:59;98648.60;;;18.40